Airfield :
LOGIN :

Register | Disclaimer

   EN    FR    IT 

 










Legend :    VFR   Marginal VFR   IFR   Intensive IFR   Very Intensive IFR
Visi :
Ceiling :
>= 8 km
>= 3000ft
5 to 8 km
1000 to 3000 ft
1500m to 5 km
500 to 1000 ft
800 to 1500m
200 to 500 ft
< 800m
< 200 ft
Symbols :   Thunderstorms  Fog  Heavy snow  Heavy precipitations  Wind > 20 kt
SIGMETs :     Misc.  Thunderstorms  Icing  Turbulence  Mountain Waves  Volcanic Ashes







- Airport Elevation : 327 ft
- IATA code : BHX
- Download approach charts


EGBB - Birmingham

CURRENT METAR :
  • 241720Z 06010KT CAVOK 11/05 Q1031

EXPIRED METARs :
  • 241650Z 04011KT 350V060 CAVOK 11/06 Q1031
  • 241620Z 05010KT CAVOK 11/06 Q1031
  • 241550Z 06009KT 9999 FEW027 12/06 Q1031
  • 241520Z 07010KT 020V110 9999 FEW025 12/06 Q1031
  • 241450Z 08009KT CAVOK 11/06 Q1031

TAF TAF EGBB
Valid from the 24 at 18:00 until the 25 at 18:00 UTC


241704Z 2418/2518 09009KT 9999 FEW030
TEMPO 2423/2510 8000
PROB30 2500/2502 3000 BR BKN004
PROB30 2502/2509 0300 FG VV///
ATIS : +44 121 780 0910
No reported NOTAMs for that airfield.
1 SIGMET reported for the London FIR (EGTT) :
 
Severe turbulence
EGTT SIGMET 04 VALID 241500/241900 EGRR
EGTT LONDON FIR SEV TURB FCST S OF N5200 AND E OF W00400 FL180/320 MOV W 15KT NC=



MET'MAP, your aeronautical weather chart ! - Copyright ORBIFLY December 2007 - Disclaimer

ORBIFLY MET'MAP TEAM :

Programming & Development : Alexandra Zaïnal
Concept & Development : Baudouin d'Aumeries
Co-Development & Prog : Marc-Olivier Méhu
Technical & hardware support : Manuel Goepfert

Contact : metmap@orbifly.com




SOURCES & CREDITS :

   NOAA